createdAt,value
2022-12-09T00:01:44.455Z,12.48
2022-12-09T00:04:12.784Z,10.23
2022-12-09T00:06:40.742Z,12.70
2022-12-09T00:09:14.078Z,11.35
2022-12-09T00:11:43.672Z,11.45
2022-12-09T00:14:12.698Z,10.38
2022-12-09T00:19:08.888Z,12.25
2022-12-09T00:21:37.223Z,10.63
2022-12-09T00:24:08.068Z,12.38
2022-12-09T00:26:36.171Z,21.17
2022-12-09T00:29:05.545Z,20.92
2022-12-09T00:31:35.611Z,11.07
2022-12-09T00:34:07.504Z,11.43
2022-12-09T00:36:38.896Z,14.20
2022-12-09T00:39:07.214Z,14.55
2022-12-09T00:41:35.269Z,13.52
2022-12-09T00:44:03.735Z,11.90
2022-12-09T00:46:32.370Z,13.90
2022-12-09T00:49:00.629Z,11.07
2022-12-09T00:51:28.671Z,11.23
2022-12-09T00:53:56.845Z,10.63
2022-12-09T00:56:29.043Z,10.30
2022-12-09T00:58:58.643Z,9.90
2022-12-09T01:01:27.637Z,13.10
2022-12-09T01:03:57.021Z,8.93
2022-12-09T01:06:26.858Z,12.68
2022-12-09T01:08:55.506Z,12.70
2022-12-09T01:11:28.998Z,10.32
2022-12-09T01:14:06.242Z,36.97
2022-12-09T01:16:35.281Z,9.68
2022-12-09T01:19:06.884Z,10.43
2022-12-09T01:21:35.657Z,7.32
2022-12-09T01:24:10.397Z,8.07
2022-12-09T01:26:38.750Z,8.15
2022-12-09T01:29:06.822Z,12.20
2022-12-09T01:31:35.039Z,10.43
2022-12-09T01:34:04.478Z,9.50
2022-12-09T01:36:32.640Z,9.50
2022-12-09T01:39:01.368Z,7.35
2022-12-09T01:41:29.687Z,9.93
2022-12-09T01:44:11.709Z,11.95
2022-12-09T01:46:40.629Z,12.40
2022-12-09T01:49:12.086Z,13.65
2022-12-09T01:51:41.244Z,12.20
2022-12-09T01:56:40.351Z,8.73
2022-12-09T01:59:14.739Z,8.50
2022-12-09T02:01:46.115Z,10.85
2022-12-09T02:04:14.437Z,13.07
2022-12-09T02:06:42.940Z,10.60
2022-12-09T02:09:12.773Z,11.10
2022-12-09T02:11:45.304Z,9.07
2022-12-09T02:14:27.909Z,7.03
2022-12-09T02:17:14.648Z,12.07
2022-12-09T02:20:09.476Z,11.40
2022-12-09T02:22:45.856Z,10.90
2022-12-09T02:25:53.957Z,10.27
2022-12-09T02:29:10.801Z,9.95
2022-12-09T02:34:34.815Z,8.43
2022-12-09T02:37:16.425Z,9.40
2022-12-09T02:39:48.916Z,8.02
2022-12-09T02:42:19.306Z,8.93
2022-12-09T02:44:52.011Z,18.83
2022-12-09T02:47:27.729Z,16.92
2022-12-09T02:50:02.114Z,18.38
2022-12-09T02:52:33.770Z,14.23
2022-12-09T02:55:05.016Z,14.48
2022-12-09T03:00:58.459Z,13.82
2022-12-09T03:03:31.608Z,11.55
2022-12-09T03:06:10.154Z,13.35
2022-12-09T03:08:43.927Z,12.68
2022-12-09T03:11:16.058Z,13.77
2022-12-09T03:13:46.819Z,14.68
2022-12-09T03:16:26.859Z,17.83
2022-12-09T03:19:04.494Z,17.88
2022-12-09T03:21:37.035Z,14.15
2022-12-09T03:24:09.029Z,15.85
2022-12-09T03:26:39.052Z,13.65
2022-12-09T03:29:15.555Z,12.50
2022-12-09T03:31:45.211Z,10.18
2022-12-09T03:34:20.586Z,9.65
2022-12-09T03:36:52.079Z,9.25
2022-12-09T03:39:27.894Z,10.00
2022-12-09T03:42:00.141Z,11.80
2022-12-09T03:44:48.696Z,9.85
2022-12-09T03:47:17.228Z,10.98
2022-12-09T03:49:45.559Z,10.80
2022-12-09T03:52:37.538Z,11.00
2022-12-09T03:55:32.213Z,8.77
2022-12-09T03:58:03.686Z,9.20
2022-12-09T04:00:32.106Z,9.82
2022-12-09T04:03:00.637Z,10.70
2022-12-09T04:05:29.055Z,12.70
2022-12-09T04:07:57.330Z,15.02
2022-12-09T04:10:25.548Z,13.23
2022-12-09T04:12:53.539Z,14.88
2022-12-09T04:15:21.581Z,15.50
2022-12-09T04:17:49.806Z,13.40
2022-12-09T04:20:18.080Z,14.85
2022-12-09T04:22:46.301Z,14.30
2022-12-09T04:25:14.451Z,11.98
2022-12-09T04:27:42.362Z,14.05
2022-12-09T04:30:11.039Z,13.27
2022-12-09T04:32:40.155Z,12.95
2022-12-09T04:35:08.876Z,11.80
2022-12-09T04:37:37.971Z,11.57
2022-12-09T04:40:07.776Z,9.55
2022-12-09T04:42:36.216Z,10.27
2022-12-09T04:45:05.585Z,11.20
2022-12-09T04:47:34.763Z,12.25
2022-12-09T04:50:03.167Z,14.52
2022-12-09T04:52:31.132Z,12.15
2022-12-09T04:54:59.235Z,13.45
2022-12-09T04:57:27.221Z,12.55
2022-12-09T04:59:55.248Z,15.38
2022-12-09T05:02:23.505Z,14.00
2022-12-09T05:04:52.352Z,21.52
2022-12-09T05:07:20.503Z,21.50
2022-12-09T05:09:50.111Z,20.08
2022-12-09T05:12:18.467Z,20.73
2022-12-09T05:14:46.463Z,52.08
2022-12-09T05:17:14.642Z,32.08
2022-12-09T05:19:43.114Z,26.25
2022-12-09T05:22:11.247Z,28.35
2022-12-09T05:24:41.244Z,20.83
2022-12-09T05:27:09.321Z,20.15
2022-12-09T05:29:37.516Z,24.30
2022-12-09T05:32:05.783Z,21.98
2022-12-09T05:34:33.912Z,21.25
2022-12-09T05:37:02.401Z,40.42
2022-12-09T05:39:31.020Z,39.03
2022-12-09T05:41:59.423Z,82.65
2022-12-09T05:44:27.477Z,47.47
2022-12-09T05:46:55.667Z,45.22
2022-12-09T05:49:23.794Z,40.88
2022-12-09T05:51:52.085Z,35.00
2022-12-09T05:54:20.208Z,60.35
2022-12-09T05:56:49.064Z,47.33
2022-12-09T05:59:17.586Z,41.42
2022-12-09T06:01:45.861Z,40.08
2022-12-09T06:04:14.620Z,41.53
2022-12-09T06:09:12.355Z,37.15
2022-12-09T06:11:42.564Z,49.90
2022-12-09T06:14:12.091Z,41.75
2022-12-09T06:16:40.490Z,42.28
2022-12-09T06:19:11.635Z,41.47
2022-12-09T06:21:41.084Z,53.05
2022-12-09T06:24:09.297Z,50.08
2022-12-09T06:26:37.559Z,47.03
2022-12-09T06:29:05.978Z,46.03
2022-12-09T06:31:34.254Z,49.10
2022-12-09T06:34:03.696Z,51.13
2022-12-09T06:36:32.272Z,27.15
2022-12-09T06:39:10.132Z,33.28
2022-12-09T06:41:41.583Z,29.65
2022-12-09T06:44:14.782Z,14.32
2022-12-09T06:46:47.938Z,10.13
2022-12-09T06:49:16.584Z,11.10
2022-12-09T06:51:44.888Z,8.60
2022-12-09T06:54:13.467Z,10.75
2022-12-09T06:56:41.916Z,10.73
2022-12-09T06:59:11.298Z,8.63
2022-12-09T07:01:40.081Z,7.72
2022-12-09T07:06:42.684Z,7.35
2022-12-09T07:09:14.105Z,8.25
2022-12-09T07:11:43.291Z,6.72
2022-12-09T07:16:39.949Z,7.22
2022-12-09T07:19:08.614Z,9.43
2022-12-09T07:21:36.633Z,7.25
2022-12-09T07:24:05.326Z,7.97
2022-12-09T07:26:33.908Z,7.82
2022-12-09T07:29:05.857Z,8.55
2022-12-09T07:31:35.455Z,8.55
2022-12-09T07:34:05.916Z,8.68
2022-12-09T07:36:36.692Z,9.02
2022-12-09T07:39:12.709Z,11.15
2022-12-09T07:41:41.295Z,8.00
2022-12-09T07:44:11.272Z,11.90
2022-12-09T07:46:39.774Z,6.63
2022-12-09T07:49:11.916Z,10.23
2022-12-09T07:51:40.899Z,8.77
2022-12-09T07:54:17.121Z,8.82
2022-12-09T07:56:45.670Z,10.18
2022-12-09T07:59:15.349Z,12.52
2022-12-09T08:01:45.532Z,14.18
2022-12-09T08:04:14.487Z,13.35
2022-12-09T08:06:42.843Z,10.32
2022-12-09T08:09:13.591Z,8.75
2022-12-09T08:11:42.551Z,11.30
2022-12-09T08:14:13.447Z,14.13
2022-12-09T08:16:43.521Z,9.98
2022-12-09T08:19:12.821Z,12.07
2022-12-09T08:21:42.435Z,16.33
2022-12-09T08:24:12.749Z,10.88
2022-12-09T08:26:42.100Z,16.40
2022-12-09T08:29:12.306Z,19.13
2022-12-09T08:31:43.795Z,12.23
2022-12-09T08:34:13.200Z,15.10
2022-12-09T08:36:42.440Z,7.05
2022-12-09T08:39:12.418Z,7.47
2022-12-09T08:41:41.182Z,8.90
2022-12-09T08:44:17.217Z,8.13
2022-12-09T08:46:50.141Z,8.15
2022-12-09T08:49:22.320Z,7.43
2022-12-09T08:51:53.871Z,8.85
2022-12-09T08:54:23.093Z,10.52
2022-12-09T08:56:55.159Z,8.70
2022-12-09T08:59:24.458Z,7.05
2022-12-09T09:01:52.776Z,11.18
2022-12-09T09:04:22.989Z,13.93
2022-12-09T09:06:52.486Z,7.85
2022-12-09T09:09:22.251Z,9.63
2022-12-09T09:11:50.989Z,7.68
2022-12-09T09:14:19.493Z,7.80
2022-12-09T09:16:48.077Z,8.63
2022-12-09T09:19:19.590Z,5.18
2022-12-09T09:21:48.181Z,7.85
2022-12-09T09:24:19.196Z,6.55
2022-12-09T09:26:48.508Z,5.82
2022-12-09T09:29:18.954Z,9.23
2022-12-09T09:31:50.388Z,9.45
2022-12-09T09:34:19.346Z,7.85
2022-12-09T09:36:49.281Z,3.97
2022-12-09T09:39:18.648Z,4.40
2022-12-09T09:42:08.091Z,5.35
2022-12-09T09:44:48.478Z,6.15
2022-12-09T09:47:23.428Z,5.70
2022-12-09T09:50:29.445Z,6.20
2022-12-09T09:52:58.404Z,3.65
2022-12-09T09:55:48.237Z,5.68
2022-12-09T09:58:45.776Z,4.72
2022-12-09T10:01:16.716Z,8.38
2022-12-09T10:04:08.966Z,4.82
2022-12-09T10:06:50.793Z,3.83
2022-12-09T10:09:57.632Z,3.35
2022-12-09T10:12:40.374Z,11.95
2022-12-09T10:15:19.791Z,8.45
2022-12-09T10:17:55.767Z,4.75
2022-12-09T10:20:28.928Z,4.53
2022-12-09T10:23:01.917Z,3.92
2022-12-09T10:25:36.617Z,3.75
2022-12-09T10:28:27.744Z,4.00
2022-12-09T10:30:57.365Z,3.38
2022-12-09T10:33:37.242Z,4.80
2022-12-09T10:36:07.779Z,4.22
2022-12-09T10:38:41.095Z,4.05
2022-12-09T10:41:40.935Z,3.95
2022-12-09T10:44:24.787Z,2.78
2022-12-09T10:47:05.272Z,5.07
2022-12-09T10:49:35.052Z,3.85
2022-12-09T10:52:05.538Z,5.07
2022-12-09T10:54:44.966Z,4.97
2022-12-09T10:57:13.545Z,3.00
2022-12-09T10:59:56.089Z,5.15
2022-12-09T11:02:24.772Z,4.97
2022-12-09T11:04:53.651Z,4.80
2022-12-09T11:07:26.142Z,4.95
2022-12-09T11:09:57.687Z,6.72
2022-12-09T11:12:32.092Z,8.18
2022-12-09T11:15:13.435Z,4.60
2022-12-09T11:17:59.702Z,4.68
2022-12-09T11:20:30.673Z,4.60
2022-12-09T11:23:18.895Z,3.22
2022-12-09T11:26:01.853Z,4.20
2022-12-09T11:28:36.158Z,6.50
2022-12-09T11:31:34.207Z,4.93
2022-12-09T11:34:15.385Z,6.72
2022-12-09T11:36:50.215Z,3.65
2022-12-09T11:39:31.599Z,5.88
2022-12-09T11:42:18.123Z,5.00
2022-12-09T11:45:02.255Z,5.82
2022-12-09T11:48:13.555Z,5.65
2022-12-09T11:50:32.757Z,3.22
2022-12-09T11:53:13.247Z,3.08
2022-12-09T11:55:51.515Z,3.47
2022-12-09T11:58:29.199Z,4.03
2022-12-09T12:01:13.496Z,3.75
2022-12-09T12:03:55.515Z,5.97
2022-12-09T12:06:42.082Z,8.63
2022-12-09T12:09:40.352Z,3.50
2022-12-09T12:12:15.031Z,4.68
2022-12-09T12:14:44.319Z,3.03
2022-12-09T12:17:32.546Z,4.97
2022-12-09T12:20:00.722Z,2.63
2022-12-09T12:22:54.540Z,3.55
2022-12-09T12:25:47.277Z,5.55
2022-12-09T12:28:26.402Z,6.00
2022-12-09T12:31:12.524Z,4.32
2022-12-09T12:39:21.548Z,7.68
2022-12-09T12:41:49.533Z,7.93
2022-12-09T12:45:18.102Z,6.28
2022-12-09T12:48:12.070Z,5.13
2022-12-09T12:50:58.034Z,4.80
2022-12-09T12:53:47.380Z,5.55
2022-12-09T12:56:19.424Z,5.50
2022-12-09T12:59:13.328Z,5.50
2022-12-09T13:01:57.776Z,4.57
2022-12-09T13:04:51.266Z,4.32
2022-12-09T13:09:56.647Z,3.28
2022-12-09T13:12:53.887Z,4.53
2022-12-09T13:15:32.482Z,3.67
2022-12-09T13:18:36.053Z,4.10
2022-12-09T13:21:06.503Z,3.67
2022-12-09T13:23:58.808Z,4.03
2022-12-09T13:26:47.690Z,4.55
2022-12-09T13:29:30.485Z,4.82
2022-12-09T13:32:19.892Z,5.22
2022-12-09T13:34:52.774Z,5.00
2022-12-09T13:37:36.726Z,5.13
2022-12-09T13:40:39.158Z,4.35
2022-12-09T13:43:12.700Z,4.78
2022-12-09T13:45:43.344Z,6.28
2022-12-09T13:48:16.482Z,5.93
2022-12-09T13:51:00.295Z,5.80
2022-12-09T13:53:35.299Z,6.22
2022-12-09T13:59:21.847Z,6.15
2022-12-09T14:02:15.896Z,8.23
2022-12-09T14:05:04.096Z,5.65
2022-12-09T14:07:39.677Z,3.70
2022-12-09T14:10:44.192Z,4.15
2022-12-09T14:13:37.689Z,5.50
2022-12-09T14:16:16.696Z,4.20
2022-12-09T14:18:45.404Z,5.95
2022-12-09T14:21:19.388Z,3.80
2022-12-09T14:24:12.013Z,5.88
2022-12-09T14:26:42.622Z,6.68
2022-12-09T14:29:10.959Z,4.07
2022-12-09T14:31:56.676Z,6.05
2022-12-09T14:34:32.587Z,7.57
2022-12-09T14:37:30.240Z,9.27
2022-12-09T14:40:16.327Z,5.10
2022-12-09T14:42:59.974Z,6.68
2022-12-09T14:45:53.558Z,8.10
2022-12-09T14:48:34.603Z,11.30
2022-12-09T14:51:33.410Z,7.60
2022-12-09T14:54:33.339Z,23.08
2022-12-09T14:57:07.442Z,22.80
2022-12-09T14:59:35.945Z,24.38
2022-12-09T15:02:09.597Z,23.08
2022-12-09T15:04:40.242Z,18.85
2022-12-09T15:07:22.518Z,19.38
2022-12-09T15:10:02.218Z,27.75
2022-12-09T15:12:41.263Z,14.60
2022-12-09T15:15:12.128Z,13.10
2022-12-09T15:17:46.678Z,13.18
2022-12-09T15:20:23.726Z,16.05
2022-12-09T15:22:58.504Z,16.35
2022-12-09T15:25:27.149Z,17.95
2022-12-09T15:28:03.839Z,13.38
2022-12-09T15:30:37.309Z,12.15
2022-12-09T15:33:15.921Z,14.35
2022-12-09T15:35:54.822Z,10.80
2022-12-09T15:38:25.133Z,12.77
2022-12-09T15:41:15.377Z,8.00
2022-12-09T15:43:44.550Z,9.38
2022-12-09T15:46:13.409Z,12.07
2022-12-09T15:48:47.563Z,12.68
2022-12-09T15:51:22.086Z,26.45
2022-12-09T15:54:00.343Z,13.10
2022-12-09T15:56:37.304Z,27.42
2022-12-09T15:59:20.569Z,22.65
2022-12-09T16:01:51.652Z,21.38
2022-12-09T16:04:23.447Z,13.50
2022-12-09T16:06:51.779Z,12.48
2022-12-09T16:09:21.544Z,9.60
2022-12-09T16:11:52.787Z,10.13
2022-12-09T16:14:23.753Z,7.32
2022-12-09T16:17:00.425Z,9.40
2022-12-09T16:19:31.405Z,8.20
2022-12-09T16:22:03.486Z,7.95
2022-12-09T16:24:58.010Z,11.57
2022-12-09T16:27:25.137Z,10.32
2022-12-09T16:29:58.673Z,7.47
2022-12-09T16:32:34.436Z,8.27
2022-12-09T16:35:11.162Z,9.23
2022-12-09T16:37:42.533Z,12.10
2022-12-09T16:40:33.547Z,11.00
2022-12-09T16:43:16.477Z,11.90
2022-12-09T16:45:55.900Z,7.05
2022-12-09T16:48:25.835Z,10.38
2022-12-09T16:50:58.751Z,8.63
2022-12-09T16:53:31.614Z,7.85
2022-12-09T16:56:02.285Z,8.45
2022-12-09T16:58:34.017Z,9.90
2022-12-09T17:01:04.681Z,7.75
2022-12-09T17:03:43.911Z,15.60
2022-12-09T17:06:17.131Z,19.45
2022-12-09T17:08:45.734Z,19.27
2022-12-09T17:11:15.119Z,13.95
2022-12-09T17:13:43.916Z,10.35
2022-12-09T17:16:12.341Z,7.10
2022-12-09T17:18:41.315Z,12.88
2022-12-09T17:21:13.220Z,6.72
2022-12-09T17:23:42.397Z,7.60
2022-12-09T17:28:42.332Z,12.50
2022-12-09T17:31:19.591Z,11.90
2022-12-09T17:33:48.875Z,11.07
2022-12-09T17:36:19.022Z,10.50
2022-12-09T17:38:48.137Z,11.13
2022-12-09T17:43:49.817Z,14.23
2022-12-09T17:46:19.114Z,10.25
2022-12-09T17:48:47.947Z,10.48
2022-12-09T17:51:20.188Z,13.93
2022-12-09T17:53:50.627Z,15.80
2022-12-09T17:56:23.955Z,20.35
2022-12-09T17:59:03.311Z,15.13
2022-12-09T18:01:34.339Z,14.35
2022-12-09T18:04:09.325Z,14.48
2022-12-09T18:06:41.093Z,15.77
2022-12-09T18:09:15.529Z,18.83
2022-12-09T18:11:45.391Z,15.80
2022-12-09T18:14:15.114Z,11.73
2022-12-09T18:16:43.809Z,7.85
2022-12-09T18:19:18.063Z,10.30
2022-12-09T18:21:46.888Z,11.55
2022-12-09T18:24:15.331Z,9.48
2022-12-09T18:26:43.937Z,16.42
2022-12-09T18:29:13.585Z,14.07
2022-12-09T18:31:45.892Z,10.38
2022-12-09T18:34:15.185Z,9.45
2022-12-09T18:36:43.814Z,7.80
2022-12-09T18:39:12.444Z,7.97
2022-12-09T18:41:40.942Z,7.53
2022-12-09T18:44:10.664Z,8.80
2022-12-09T18:46:41.369Z,7.53
2022-12-09T18:49:16.422Z,7.22
2022-12-09T18:54:21.108Z,5.25
2022-12-09T18:56:52.817Z,7.60
2022-12-09T18:59:23.685Z,7.38
2022-12-09T19:01:52.842Z,8.00
2022-12-09T19:06:53.709Z,10.80
2022-12-09T19:09:24.771Z,10.27
2022-12-09T19:11:53.864Z,7.38
2022-12-09T19:14:23.680Z,8.05
2022-12-09T19:16:53.298Z,8.15
2022-12-09T19:19:24.905Z,7.18
2022-12-09T19:21:54.295Z,10.50
2022-12-09T19:24:32.969Z,8.20
2022-12-09T19:27:01.669Z,6.65
2022-12-09T19:29:30.067Z,10.95
2022-12-09T19:31:58.818Z,8.98
2022-12-09T19:34:29.696Z,6.90
2022-12-09T19:37:00.583Z,8.50
2022-12-09T19:39:31.675Z,9.75
2022-12-09T19:42:01.560Z,8.20
2022-12-09T19:44:59.439Z,12.20
2022-12-09T19:47:19.157Z,6.93
2022-12-09T19:49:47.671Z,7.63
2022-12-09T19:52:16.524Z,8.70
2022-12-09T19:54:45.214Z,6.72
2022-12-09T19:57:13.761Z,8.10
2022-12-09T19:59:42.643Z,9.32
2022-12-09T20:02:12.429Z,9.48
2022-12-09T20:04:50.062Z,9.70
2022-12-09T20:07:20.534Z,8.38
2022-12-09T20:09:49.371Z,10.38
2022-12-09T20:12:17.964Z,9.40
2022-12-09T20:14:46.708Z,9.65
2022-12-09T20:17:17.733Z,10.75
2022-12-09T20:19:47.169Z,11.23
2022-12-09T20:22:15.636Z,11.70
2022-12-09T20:24:44.600Z,7.78
2022-12-09T20:27:13.105Z,8.23
2022-12-09T20:29:41.697Z,11.10
2022-12-09T20:32:10.559Z,11.50
2022-12-09T20:34:39.434Z,9.35
2022-12-09T20:37:08.382Z,9.48
2022-12-09T20:39:36.770Z,9.55
2022-12-09T20:42:05.102Z,10.57
2022-12-09T20:44:33.665Z,16.85
2022-12-09T20:47:02.161Z,9.48
2022-12-09T20:49:31.107Z,13.90
2022-12-09T20:51:59.402Z,11.63
2022-12-09T20:54:27.642Z,15.73
2022-12-09T20:56:56.068Z,15.57
2022-12-09T20:59:24.329Z,17.85
2022-12-09T21:01:54.503Z,14.30
2022-12-09T21:04:23.258Z,14.13
2022-12-09T21:06:51.581Z,9.00
2022-12-09T21:09:22.494Z,9.75
2022-12-09T21:11:50.745Z,9.07
2022-12-09T21:14:20.066Z,9.57
2022-12-09T21:16:50.821Z,10.30
2022-12-09T21:19:24.999Z,8.32
2022-12-09T21:21:54.716Z,10.13
2022-12-09T21:24:24.457Z,8.70
2022-12-09T21:26:55.601Z,11.65
2022-12-09T21:29:31.264Z,13.05
2022-12-09T21:32:01.472Z,12.80
2022-12-09T21:34:30.165Z,12.18
2022-12-09T21:36:59.033Z,8.95
2022-12-09T21:39:28.279Z,16.55
2022-12-09T21:41:56.396Z,9.40
2022-12-09T21:44:25.926Z,9.40
2022-12-09T21:46:54.871Z,9.75
2022-12-09T21:49:22.805Z,8.75
2022-12-09T21:51:50.993Z,10.35
2022-12-09T21:54:19.020Z,11.27
2022-12-09T21:56:47.935Z,8.45
2022-12-09T21:59:16.191Z,8.50
2022-12-09T22:01:44.472Z,9.10
2022-12-09T22:04:16.639Z,9.85
2022-12-09T22:06:50.597Z,9.10
2022-12-09T22:09:21.181Z,8.20
2022-12-09T22:11:49.813Z,14.82
2022-12-09T22:14:18.026Z,14.18
2022-12-09T22:16:46.631Z,13.50
2022-12-09T22:19:17.917Z,10.27
2022-12-09T22:21:46.687Z,9.52
2022-12-09T22:24:15.798Z,10.77
2022-12-09T22:26:45.414Z,8.02
2022-12-09T22:31:43.499Z,8.73
2022-12-09T22:34:14.816Z,9.75
2022-12-09T22:36:43.237Z,11.93
2022-12-09T22:39:14.842Z,9.95
2022-12-09T22:41:43.973Z,10.45
2022-12-09T22:44:14.100Z,12.60
2022-12-09T22:46:42.520Z,10.18
2022-12-09T22:49:12.243Z,9.45
2022-12-09T22:51:41.686Z,9.93
2022-12-09T22:54:10.455Z,8.90
2022-12-09T22:56:40.385Z,12.88
2022-12-09T22:59:09.423Z,8.88
2022-12-09T23:01:38.720Z,10.75
2022-12-09T23:04:08.301Z,12.45
2022-12-09T23:06:38.637Z,7.88
2022-12-09T23:09:09.553Z,8.98
2022-12-09T23:11:37.944Z,8.02
2022-12-09T23:14:05.884Z,6.55
2022-12-09T23:16:34.024Z,6.18
2022-12-09T23:19:02.243Z,6.70
2022-12-09T23:21:33.746Z,8.48
2022-12-09T23:24:05.779Z,8.55
2022-12-09T23:26:39.675Z,8.48
2022-12-09T23:29:12.325Z,6.53
2022-12-09T23:31:41.239Z,8.07
2022-12-09T23:34:11.640Z,7.47
2022-12-09T23:36:42.174Z,8.35
2022-12-09T23:39:14.052Z,8.30
2022-12-09T23:41:43.691Z,8.20
2022-12-09T23:44:14.994Z,8.38
2022-12-09T23:46:43.405Z,8.18
2022-12-09T23:49:11.347Z,8.32
2022-12-09T23:51:41.705Z,7.88
2022-12-09T23:54:11.151Z,8.25
2022-12-09T23:56:40.663Z,9.38
2022-12-09T23:59:11.420Z,10.50
